sensor_id;sensor_type;location;lat;lon;timestamp;pressure;altitude;pressure_sealevel;temperature;humidity
11099;BME280;12223;42.650;23.364;2023-07-31T00:02:20;94379.09;;;25.07;84.90
11099;BME280;12223;42.650;23.364;2023-07-31T00:04:47;94375.25;;;25.26;84.92
11099;BME280;12223;42.650;23.364;2023-07-31T00:07:14;94372.19;;;25.44;84.26
11099;BME280;12223;42.650;23.364;2023-07-31T00:09:42;94381.94;;;24.68;89.24
11099;BME280;12223;42.650;23.364;2023-07-31T00:12:09;94384.47;;;25.42;86.99
11099;BME280;12223;42.650;23.364;2023-07-31T00:14:36;94391.81;;;24.98;89.72
11099;BME280;12223;42.650;23.364;2023-07-31T00:17:03;94391.47;;;24.82;93.68
11099;BME280;12223;42.650;23.364;2023-07-31T00:19:30;94386.88;;;25.26;88.99
11099;BME280;12223;42.650;23.364;2023-07-31T00:21:56;94386.06;;;24.00;98.80
11099;BME280;12223;42.650;23.364;2023-07-31T00:24:23;94386.16;;;23.86;100.00
11099;BME280;12223;42.650;23.364;2023-07-31T00:26:51;94378.75;;;24.40;96.94
11099;BME280;12223;42.650;23.364;2023-07-31T00:29:18;94374.84;;;24.15;100.00
11099;BME280;12223;42.650;23.364;2023-07-31T00:31:45;94370.63;;;24.49;99.36
11099;BME280;12223;42.650;23.364;2023-07-31T00:34:11;94361.88;;;24.26;99.06
11099;BME280;12223;42.650;23.364;2023-07-31T00:36:38;94355.84;;;24.20;100.00
11099;BME280;12223;42.650;23.364;2023-07-31T00:39:05;94354.81;;;24.16;100.00
11099;BME280;12223;42.650;23.364;2023-07-31T00:41:32;94355.56;;;24.65;100.00
11099;BME280;12223;42.650;23.364;2023-07-31T00:44:00;94363.97;;;24.55;100.00
11099;BME280;12223;42.650;23.364;2023-07-31T00:46:26;94354.75;;;23.82;100.00
11099;BME280;12223;42.650;23.364;2023-07-31T00:48:53;94360.16;;;23.29;100.00
11099;BME280;12223;42.650;23.364;2023-07-31T00:51:20;94355.50;;;22.54;100.00
11099;BME280;12223;42.650;23.364;2023-07-31T00:53:47;94363.81;;;22.43;100.00
11099;BME280;12223;42.650;23.364;2023-07-31T00:56:14;94353.19;;;21.70;100.00
11099;BME280;12223;42.650;23.364;2023-07-31T00:58:42;94332.88;;;21.37;100.00
11099;BME280;12223;42.650;23.364;2023-07-31T01:01:10;94341.41;;;22.21;100.00
11099;BME280;12223;42.650;23.364;2023-07-31T01:03:37;94342.16;;;21.99;100.00
11099;BME280;12223;42.650;23.364;2023-07-31T01:06:15;94331.28;;;21.90;100.00
11099;BME280;12223;42.650;23.364;2023-07-31T01:08:51;94326.41;;;21.51;100.00
11099;BME280;12223;42.650;23.364;2023-07-31T01:11:25;94346.06;;;22.65;100.00
11099;BME280;12223;42.650;23.364;2023-07-31T01:13:53;94343.59;;;23.13;100.00
11099;BME280;12223;42.650;23.364;2023-07-31T01:16:21;94347.16;;;22.77;100.00
11099;BME280;12223;42.650;23.364;2023-07-31T01:18:48;94338.91;;;23.27;100.00
11099;BME280;12223;42.650;23.364;2023-07-31T01:21:23;94342.16;;;23.69;100.00
11099;BME280;12223;42.650;23.364;2023-07-31T01:24:13;94341.19;;;24.13;100.00
11099;BME280;12223;42.650;23.364;2023-07-31T01:26:47;94339.88;;;23.93;100.00
11099;BME280;12223;42.650;23.364;2023-07-31T01:29:20;94332.41;;;23.50;100.00
11099;BME280;12223;42.650;23.364;2023-07-31T01:31:50;94338.44;;;23.95;100.00
11099;BME280;12223;42.650;23.364;2023-07-31T01:34:20;94342.13;;;24.08;100.00
11099;BME280;12223;42.650;23.364;2023-07-31T01:36:48;94333.88;;;23.65;100.00
11099;BME280;12223;42.650;23.364;2023-07-31T01:39:15;94341.38;;;23.68;100.00
11099;BME280;12223;42.650;23.364;2023-07-31T01:41:41;94333.44;;;23.72;100.00
11099;BME280;12223;42.650;23.364;2023-07-31T01:44:10;94333.44;;;23.63;100.00
11099;BME280;12223;42.650;23.364;2023-07-31T01:46:36;94333.88;;;24.13;100.00
11099;BME280;12223;42.650;23.364;2023-07-31T01:49:03;94328.31;;;24.10;100.00
11099;BME280;12223;42.650;23.364;2023-07-31T01:51:31;94328.66;;;24.08;100.00
11099;BME280;12223;42.650;23.364;2023-07-31T01:53:59;94325.63;;;24.01;100.00
11099;BME280;12223;42.650;23.364;2023-07-31T01:56:26;94328.06;;;23.41;100.00
11099;BME280;12223;42.650;23.364;2023-07-31T01:58:53;94340.66;;;23.54;100.00
11099;BME280;12223;42.650;23.364;2023-07-31T02:01:21;94338.84;;;23.72;100.00
11099;BME280;12223;42.650;23.364;2023-07-31T02:03:47;94343.00;;;23.47;100.00
11099;BME280;12223;42.650;23.364;2023-07-31T02:06:14;94335.59;;;22.99;100.00
11099;BME280;12223;42.650;23.364;2023-07-31T02:08:41;94336.31;;;23.13;100.00
11099;BME280;12223;42.650;23.364;2023-07-31T02:11:08;94348.63;;;23.59;100.00
11099;BME280;12223;42.650;23.364;2023-07-31T02:13:34;94350.50;;;23.27;100.00
11099;BME280;12223;42.650;23.364;2023-07-31T02:16:01;94345.75;;;23.55;100.00
11099;BME280;12223;42.650;23.364;2023-07-31T02:18:29;94348.41;;;23.47;100.00
11099;BME280;12223;42.650;23.364;2023-07-31T02:20:56;94357.28;;;23.87;100.00
11099;BME280;12223;42.650;23.364;2023-07-31T02:23:23;94354.75;;;23.90;100.00
11099;BME280;12223;42.650;23.364;2023-07-31T02:25:49;94361.00;;;23.07;100.00
11099;BME280;12223;42.650;23.364;2023-07-31T02:28:16;94358.94;;;23.35;100.00
11099;BME280;12223;42.650;23.364;2023-07-31T02:30:44;94353.38;;;23.09;100.00
11099;BME280;12223;42.650;23.364;2023-07-31T02:33:11;94350.69;;;23.31;100.00
11099;BME280;12223;42.650;23.364;2023-07-31T02:35:39;94348.81;;;23.40;100.00
11099;BME280;12223;42.650;23.364;2023-07-31T02:38:06;94351.16;;;23.55;100.00
11099;BME280;12223;42.650;23.364;2023-07-31T02:40:33;94350.84;;;23.57;100.00
11099;BME280;12223;42.650;23.364;2023-07-31T02:43:00;94349.69;;;23.89;100.00
11099;BME280;12223;42.650;23.364;2023-07-31T02:45:26;94348.84;;;23.80;100.00
11099;BME280;12223;42.650;23.364;2023-07-31T02:47:53;94353.28;;;23.76;100.00
11099;BME280;12223;42.650;23.364;2023-07-31T02:50:20;94354.88;;;24.25;100.00
11099;BME280;12223;42.650;23.364;2023-07-31T02:52:48;94360.44;;;24.28;100.00
11099;BME280;12223;42.650;23.364;2023-07-31T02:55:15;94362.06;;;23.28;100.00
11099;BME280;12223;42.650;23.364;2023-07-31T02:57:41;94358.28;;;23.60;100.00
11099;BME280;12223;42.650;23.364;2023-07-31T03:00:08;94368.22;;;23.82;100.00
11099;BME280;12223;42.650;23.364;2023-07-31T03:02:35;94363.03;;;23.54;100.00
11099;BME280;12223;42.650;23.364;2023-07-31T03:05:02;94371.56;;;24.27;100.00
11099;BME280;12223;42.650;23.364;2023-07-31T03:07:29;94367.53;;;23.68;100.00
11099;BME280;12223;42.650;23.364;2023-07-31T03:09:57;94370.53;;;24.05;100.00
11099;BME280;12223;42.650;23.364;2023-07-31T03:12:24;94367.03;;;24.05;100.00
11099;BME280;12223;42.650;23.364;2023-07-31T03:14:50;94371.91;;;24.42;100.00
11099;BME280;12223;42.650;23.364;2023-07-31T03:17:17;94378.88;;;24.35;100.00
11099;BME280;12223;42.650;23.364;2023-07-31T03:19:44;94386.25;;;23.64;100.00
11099;BME280;12223;42.650;23.364;2023-07-31T03:22:11;94382.31;;;24.18;100.00
11099;BME280;12223;42.650;23.364;2023-07-31T03:24:37;94388.22;;;23.81;100.00
11099;BME280;12223;42.650;23.364;2023-07-31T03:27:06;94385.41;;;24.03;100.00
11099;BME280;12223;42.650;23.364;2023-07-31T03:29:33;94377.28;;;22.66;100.00
11099;BME280;12223;42.650;23.364;2023-07-31T03:31:59;94382.41;;;23.12;100.00
11099;BME280;12223;42.650;23.364;2023-07-31T03:34:26;94369.41;;;22.20;100.00
11099;BME280;12223;42.650;23.364;2023-07-31T03:36:53;94367.03;;;22.18;100.00
11099;BME280;12223;42.650;23.364;2023-07-31T03:39:20;94383.78;;;22.51;100.00
11099;BME280;12223;42.650;23.364;2023-07-31T03:41:47;94387.91;;;23.29;100.00
11099;BME280;12223;42.650;23.364;2023-07-31T03:44:15;94371.22;;;22.11;100.00
11099;BME280;12223;42.650;23.364;2023-07-31T03:46:42;94381.81;;;22.93;100.00
11099;BME280;12223;42.650;23.364;2023-07-31T03:49:08;94384.88;;;23.84;100.00
11099;BME280;12223;42.650;23.364;2023-07-31T03:51:35;94395.78;;;24.18;100.00
11099;BME280;12223;42.650;23.364;2023-07-31T03:54:02;94393.19;;;23.96;100.00
11099;BME280;12223;42.650;23.364;2023-07-31T03:56:29;94399.00;;;23.81;100.00
11099;BME280;12223;42.650;23.364;2023-07-31T03:58:56;94406.47;;;24.23;100.00
11099;BME280;12223;42.650;23.364;2023-07-31T04:01:24;94406.09;;;24.08;100.00
11099;BME280;12223;42.650;23.364;2023-07-31T04:03:50;94409.34;;;24.35;100.00
11099;BME280;12223;42.650;23.364;2023-07-31T04:06:17;94411.78;;;24.06;100.00
11099;BME280;12223;42.650;23.364;2023-07-31T04:08:45;94414.19;;;24.08;100.00
11099;BME280;12223;42.650;23.364;2023-07-31T04:11:12;94415.34;;;24.24;100.00
11099;BME280;12223;42.650;23.364;2023-07-31T04:13:39;94412.34;;;24.25;100.00
11099;BME280;12223;42.650;23.364;2023-07-31T04:16:05;94413.97;;;24.43;100.00
11099;BME280;12223;42.650;23.364;2023-07-31T04:18:34;94415.78;;;24.17;100.00
11099;BME280;12223;42.650;23.364;2023-07-31T04:21:00;94414.84;;;24.13;100.00
11099;BME280;12223;42.650;23.364;2023-07-31T04:23:28;94422.28;;;24.16;100.00
11099;BME280;12223;42.650;23.364;2023-07-31T04:25:54;94420.03;;;24.10;100.00
11099;BME280;12223;42.650;23.364;2023-07-31T04:28:21;94432.19;;;24.29;100.00
11099;BME280;12223;42.650;23.364;2023-07-31T04:30:48;94431.41;;;23.89;100.00
11099;BME280;12223;42.650;23.364;2023-07-31T04:33:15;94424.31;;;24.50;100.00
11099;BME280;12223;42.650;23.364;2023-07-31T04:35:49;94430.19;;;24.43;100.00
11099;BME280;12223;42.650;23.364;2023-07-31T04:38:17;94424.34;;;24.67;100.00
11099;BME280;12223;42.650;23.364;2023-07-31T04:40:44;94423.78;;;24.96;100.00
11099;BME280;12223;42.650;23.364;2023-07-31T04:43:11;94432.97;;;25.12;100.00
11099;BME280;12223;42.650;23.364;2023-07-31T04:45:37;94429.00;;;25.18;100.00
11099;BME280;12223;42.650;23.364;2023-07-31T04:48:04;94426.94;;;24.98;100.00
11099;BME280;12223;42.650;23.364;2023-07-31T04:50:31;94427.56;;;24.78;100.00
11099;BME280;12223;42.650;23.364;2023-07-31T04:52:59;94426.25;;;24.67;100.00
11099;BME280;12223;42.650;23.364;2023-07-31T04:55:26;94422.78;;;25.44;100.00
11099;BME280;12223;42.650;23.364;2023-07-31T04:57:53;94426.94;;;25.07;100.00
11099;BME280;12223;42.650;23.364;2023-07-31T05:00:19;94425.50;;;25.18;100.00
11099;BME280;12223;42.650;23.364;2023-07-31T05:02:46;94429.78;;;25.19;100.00
11099;BME280;12223;42.650;23.364;2023-07-31T05:05:13;94428.38;;;25.04;100.00
11099;BME280;12223;42.650;23.364;2023-07-31T05:07:40;94424.91;;;25.04;100.00
11099;BME280;12223;42.650;23.364;2023-07-31T05:10:09;94417.97;;;26.51;91.92
11099;BME280;12223;42.650;23.364;2023-07-31T05:12:35;94421.66;;;28.16;76.14
11099;BME280;12223;42.650;23.364;2023-07-31T05:15:02;94426.59;;;29.51;65.27
11099;BME280;12223;42.650;23.364;2023-07-31T05:17:29;94417.19;;;29.92;61.44
11099;BME280;12223;42.650;23.364;2023-07-31T05:19:56;94419.66;;;29.97;60.05
11099;BME280;12223;42.650;23.364;2023-07-31T05:22:23;94417.19;;;29.92;57.99
11099;BME280;12223;42.650;23.364;2023-07-31T05:24:49;94423.81;;;29.64;59.68
11099;BME280;12223;42.650;23.364;2023-07-31T05:27:17;94418.09;;;29.69;59.02
11099;BME280;12223;42.650;23.364;2023-07-31T05:29:45;94411.56;;;30.48;56.33
11099;BME280;12223;42.650;23.364;2023-07-31T05:32:11;94414.56;;;31.86;51.67
11099;BME280;12223;42.650;23.364;2023-07-31T05:34:38;94416.53;;;31.67;50.34
11099;BME280;12223;42.650;23.364;2023-07-31T05:37:05;94415.09;;;30.02;52.52
11099;BME280;12223;42.650;23.364;2023-07-31T05:39:32;94415.53;;;29.32;57.85
11099;BME280;12223;42.650;23.364;2023-07-31T05:41:59;94411.31;;;30.06;55.13
11099;BME280;12223;42.650;23.364;2023-07-31T05:44:27;94401.00;;;29.40;57.08
11099;BME280;12223;42.650;23.364;2023-07-31T05:46:53;94418.69;;;29.34;57.60
11099;BME280;12223;42.650;23.364;2023-07-31T05:49:20;94422.34;;;28.86;60.40
11099;BME280;12223;42.650;23.364;2023-07-31T05:51:47;94417.78;;;29.30;56.73
11099;BME280;12223;42.650;23.364;2023-07-31T05:54:14;94419.84;;;29.61;54.99
11099;BME280;12223;42.650;23.364;2023-07-31T05:56:40;94430.59;;;29.30;54.46
11099;BME280;12223;42.650;23.364;2023-07-31T05:59:08;94436.63;;;29.23;55.67
11099;BME280;12223;42.650;23.364;2023-07-31T06:01:36;94432.31;;;29.22;54.13
11099;BME280;12223;42.650;23.364;2023-07-31T06:04:03;94436.88;;;29.58;52.94
11099;BME280;12223;42.650;23.364;2023-07-31T06:06:30;94438.25;;;29.12;53.66
11099;BME280;12223;42.650;23.364;2023-07-31T06:08:57;94440.91;;;28.60;56.23
11099;BME280;12223;42.650;23.364;2023-07-31T06:11:24;94439.56;;;28.78;54.67
11099;BME280;12223;42.650;23.364;2023-07-31T06:13:50;94435.13;;;28.25;55.91
11099;BME280;12223;42.650;23.364;2023-07-31T06:16:17;94435.09;;;27.14;59.29
11099;BME280;12223;42.650;23.364;2023-07-31T06:18:45;94435.94;;;26.85;63.84
11099;BME280;12223;42.650;23.364;2023-07-31T06:21:12;94437.25;;;27.41;59.79
11099;BME280;12223;42.650;23.364;2023-07-31T06:23:39;94428.78;;;28.21;56.96
11099;BME280;12223;42.650;23.364;2023-07-31T06:26:05;94423.91;;;28.14;55.27
11099;BME280;12223;42.650;23.364;2023-07-31T06:28:32;94426.66;;;27.48;57.38
11099;BME280;12223;42.650;23.364;2023-07-31T06:30:59;94426.75;;;26.48;60.51
11099;BME280;12223;42.650;23.364;2023-07-31T06:33:26;94440.75;;;25.31;70.26
11099;BME280;12223;42.650;23.364;2023-07-31T06:35:54;94431.72;;;25.01;71.90
11099;BME280;12223;42.650;23.364;2023-07-31T06:38:24;94424.06;;;25.38;71.85
11099;BME280;12223;42.650;23.364;2023-07-31T06:40:51;94423.75;;;25.13;73.72
11099;BME280;12223;42.650;23.364;2023-07-31T06:43:17;94424.31;;;26.26;66.32
11099;BME280;12223;42.650;23.364;2023-07-31T06:45:44;94431.38;;;25.37;70.46
11099;BME280;12223;42.650;23.364;2023-07-31T06:48:11;94426.97;;;26.64;65.14
11099;BME280;12223;42.650;23.364;2023-07-31T06:50:38;94427.75;;;27.56;60.65
11099;BME280;12223;42.650;23.364;2023-07-31T06:53:06;94428.75;;;25.92;66.00
11099;BME280;12223;42.650;23.364;2023-07-31T06:55:33;94433.38;;;26.59;66.86
11099;BME280;12223;42.650;23.364;2023-07-31T06:58:00;94432.78;;;27.25;61.76
11099;BME280;12223;42.650;23.364;2023-07-31T07:00:27;94437.34;;;26.32;64.01
11099;BME280;12223;42.650;23.364;2023-07-31T07:02:54;94438.91;;;26.63;65.89
11099;BME280;12223;42.650;23.364;2023-07-31T07:05:21;94436.00;;;27.59;59.86
11099;BME280;12223;42.650;23.364;2023-07-31T07:07:49;94433.50;;;27.34;59.98
11099;BME280;12223;42.650;23.364;2023-07-31T07:10:17;94434.44;;;27.71;57.28
11099;BME280;12223;42.650;23.364;2023-07-31T07:12:44;94433.84;;;25.85;65.06
11099;BME280;12223;42.650;23.364;2023-07-31T07:15:11;94437.34;;;26.32;64.93
11099;BME280;12223;42.650;23.364;2023-07-31T07:17:37;94436.25;;;26.25;61.57
11099;BME280;12223;42.650;23.364;2023-07-31T07:20:05;94437.25;;;27.20;59.57
11099;BME280;12223;42.650;23.364;2023-07-31T07:22:33;94433.13;;;26.73;61.71
11099;BME280;12223;42.650;23.364;2023-07-31T07:25:00;94446.44;;;26.28;64.58
11099;BME280;12223;42.650;23.364;2023-07-31T07:27:28;94436.91;;;26.80;61.56
11099;BME280;12223;42.650;23.364;2023-07-31T07:29:54;94437.16;;;26.96;60.25
11099;BME280;12223;42.650;23.364;2023-07-31T07:32:21;94450.84;;;27.74;54.50
11099;BME280;12223;42.650;23.364;2023-07-31T07:34:48;94442.03;;;28.34;52.26
11099;BME280;12223;42.650;23.364;2023-07-31T07:37:15;94440.25;;;28.38;51.58
11099;BME280;12223;42.650;23.364;2023-07-31T07:39:42;94432.53;;;28.77;50.48
11099;BME280;12223;42.650;23.364;2023-07-31T07:42:09;94423.75;;;29.08;49.62
11099;BME280;12223;42.650;23.364;2023-07-31T07:44:37;94450.88;;;29.32;48.72
11099;BME280;12223;42.650;23.364;2023-07-31T07:47:04;94448.16;;;28.56;51.39
11099;BME280;12223;42.650;23.364;2023-07-31T07:49:33;94456.25;;;27.62;53.53
11099;BME280;12223;42.650;23.364;2023-07-31T07:52:00;94442.38;;;27.22;56.78
11099;BME280;12223;42.650;23.364;2023-07-31T07:54:26;94445.25;;;25.99;60.15
11099;BME280;12223;42.650;23.364;2023-07-31T07:56:53;94444.28;;;27.42;56.17
11099;BME280;12223;42.650;23.364;2023-07-31T07:59:20;94452.69;;;27.08;57.26
11099;BME280;12223;42.650;23.364;2023-07-31T08:01:48;94442.50;;;28.24;51.60
11099;BME280;12223;42.650;23.364;2023-07-31T08:04:15;94456.88;;;28.61;49.71
11099;BME280;12223;42.650;23.364;2023-07-31T08:06:42;94457.66;;;28.62;49.68
11099;BME280;12223;42.650;23.364;2023-07-31T08:09:08;94449.28;;;27.85;49.82
11099;BME280;12223;42.650;23.364;2023-07-31T08:11:35;94445.22;;;27.05;54.54
11099;BME280;12223;42.650;23.364;2023-07-31T08:14:02;94445.59;;;25.98;56.09
11099;BME280;12223;42.650;23.364;2023-07-31T08:16:29;94450.63;;;27.26;55.21
11099;BME280;12223;42.650;23.364;2023-07-31T08:18:57;94444.91;;;27.93;52.18
11099;BME280;12223;42.650;23.364;2023-07-31T08:21:23;94451.31;;;26.72;56.11
11099;BME280;12223;42.650;23.364;2023-07-31T08:23:50;94444.53;;;26.20;60.01
11099;BME280;12223;42.650;23.364;2023-07-31T08:26:17;94450.19;;;26.73;58.37
11099;BME280;12223;42.650;23.364;2023-07-31T08:28:44;94439.75;;;28.12;51.76
11099;BME280;12223;42.650;23.364;2023-07-31T08:31:11;94445.44;;;28.44;50.58
11099;BME280;12223;42.650;23.364;2023-07-31T08:33:38;94449.06;;;28.35;49.73
11099;BME280;12223;42.650;23.364;2023-07-31T08:36:06;94447.66;;;26.39;57.67
11099;BME280;12223;42.650;23.364;2023-07-31T08:38:33;94455.84;;;28.17;51.33
11099;BME280;12223;42.650;23.364;2023-07-31T08:41:00;94444.94;;;29.02;46.58
11099;BME280;12223;42.650;23.364;2023-07-31T08:43:27;94452.69;;;28.88;46.72
11099;BME280;12223;42.650;23.364;2023-07-31T08:45:54;94451.06;;;28.99;45.28
11099;BME280;12223;42.650;23.364;2023-07-31T08:48:22;94452.69;;;29.96;43.70
11099;BME280;12223;42.650;23.364;2023-07-31T08:50:49;94444.09;;;29.26;45.07
11099;BME280;12223;42.650;23.364;2023-07-31T08:53:18;94449.19;;;27.82;48.57
11099;BME280;12223;42.650;23.364;2023-07-31T08:55:45;94448.72;;;28.25;47.17
11099;BME280;12223;42.650;23.364;2023-07-31T08:58:13;94453.22;;;29.74;43.81
11099;BME280;12223;42.650;23.364;2023-07-31T09:00:40;94445.09;;;30.64;41.57
11099;BME280;12223;42.650;23.364;2023-07-31T09:03:11;94452.00;;;28.67;44.83
11099;BME280;12223;42.650;23.364;2023-07-31T09:05:42;94443.38;;;29.01;45.22
11099;BME280;12223;42.650;23.364;2023-07-31T09:08:09;94437.69;;;30.02;43.01
11099;BME280;12223;42.650;23.364;2023-07-31T09:10:41;94442.38;;;29.89;43.27
11099;BME280;12223;42.650;23.364;2023-07-31T09:13:08;94442.00;;;30.19;41.75
11099;BME280;12223;42.650;23.364;2023-07-31T09:15:35;94436.63;;;30.38;41.25
11099;BME280;12223;42.650;23.364;2023-07-31T09:18:03;94432.88;;;30.58;40.26
11099;BME280;12223;42.650;23.364;2023-07-31T09:20:30;94435.50;;;30.70;40.38
11099;BME280;12223;42.650;23.364;2023-07-31T09:23:05;94436.88;;;30.17;40.82
11099;BME280;12223;42.650;23.364;2023-07-31T09:25:33;94434.75;;;30.73;39.89
11099;BME280;12223;42.650;23.364;2023-07-31T09:28:03;94434.25;;;31.19;38.20
11099;BME280;12223;42.650;23.364;2023-07-31T09:30:30;94426.22;;;31.45;37.44
11099;BME280;12223;42.650;23.364;2023-07-31T09:33:01;94420.75;;;31.83;37.15
11099;BME280;12223;42.650;23.364;2023-07-31T09:35:29;94416.38;;;31.79;37.01
11099;BME280;12223;42.650;23.364;2023-07-31T09:37:58;94416.34;;;32.44;36.25
11099;BME280;12223;42.650;23.364;2023-07-31T09:40:27;94412.13;;;32.23;36.87
11099;BME280;12223;42.650;23.364;2023-07-31T09:42:56;94417.72;;;30.76;39.50
11099;BME280;12223;42.650;23.364;2023-07-31T09:45:25;94409.97;;;31.13;38.99
11099;BME280;12223;42.650;23.364;2023-07-31T09:47:52;94412.25;;;31.50;37.98
11099;BME280;12223;42.650;23.364;2023-07-31T09:50:20;94410.97;;;30.39;40.57
11099;BME280;12223;42.650;23.364;2023-07-31T09:52:48;94415.81;;;30.96;38.99
11099;BME280;12223;42.650;23.364;2023-07-31T09:55:14;94429.94;;;29.61;42.33
11099;BME280;12223;42.650;23.364;2023-07-31T09:57:44;94405.69;;;30.97;38.73
11099;BME280;12223;42.650;23.364;2023-07-31T10:00:12;94407.31;;;31.36;37.75
11099;BME280;12223;42.650;23.364;2023-07-31T10:02:41;94407.03;;;31.80;37.57
11099;BME280;12223;42.650;23.364;2023-07-31T10:05:08;94414.44;;;29.49;40.56
11099;BME280;12223;42.650;23.364;2023-07-31T10:07:37;94404.69;;;27.62;44.52
11099;BME280;12223;42.650;23.364;2023-07-31T10:10:07;94403.09;;;28.79;43.82
11099;BME280;12223;42.650;23.364;2023-07-31T10:12:35;94404.38;;;30.40;40.74
11099;BME280;12223;42.650;23.364;2023-07-31T10:15:03;94405.75;;;31.00;38.87
11099;BME280;12223;42.650;23.364;2023-07-31T10:17:31;94397.94;;;30.99;38.36
11099;BME280;12223;42.650;23.364;2023-07-31T10:19:59;94397.28;;;29.33;40.88
11099;BME280;12223;42.650;23.364;2023-07-31T10:22:30;94395.59;;;30.47;39.48
11099;BME280;12223;42.650;23.364;2023-07-31T10:24:58;94403.88;;;31.78;37.20
11099;BME280;12223;42.650;23.364;2023-07-31T10:27:25;94391.44;;;32.26;35.15
11099;BME280;12223;42.650;23.364;2023-07-31T10:29:53;94400.44;;;32.76;34.38
11099;BME280;12223;42.650;23.364;2023-07-31T10:32:21;94401.47;;;30.33;37.20
11099;BME280;12223;42.650;23.364;2023-07-31T10:34:50;94404.16;;;29.42;38.94
11099;BME280;12223;42.650;23.364;2023-07-31T10:37:27;94390.47;;;30.45;37.45
11099;BME280;12223;42.650;23.364;2023-07-31T10:39:59;94391.63;;;30.95;36.32
11099;BME280;12223;42.650;23.364;2023-07-31T10:42:33;94371.28;;;30.22;38.26
11099;BME280;12223;42.650;23.364;2023-07-31T10:45:02;94373.81;;;30.82;38.02
11099;BME280;12223;42.650;23.364;2023-07-31T10:47:29;94378.22;;;30.20;38.69
11099;BME280;12223;42.650;23.364;2023-07-31T10:50:12;94383.38;;;28.82;39.41
11099;BME280;12223;42.650;23.364;2023-07-31T10:52:44;94376.84;;;28.34;41.39
11099;BME280;12223;42.650;23.364;2023-07-31T10:55:29;94377.72;;;28.87;40.92
11099;BME280;12223;42.650;23.364;2023-07-31T10:58:00;94361.88;;;29.45;39.37
11099;BME280;12223;42.650;23.364;2023-07-31T11:00:31;94373.41;;;31.18;36.37
11099;BME280;12223;42.650;23.364;2023-07-31T11:03:03;94357.16;;;30.87;35.47
11099;BME280;12223;42.650;23.364;2023-07-31T11:05:47;94371.97;;;31.63;35.38
11099;BME280;12223;42.650;23.364;2023-07-31T11:08:17;94365.22;;;31.99;34.84
11099;BME280;12223;42.650;23.364;2023-07-31T11:10:45;94352.09;;;30.19;36.99
11099;BME280;12223;42.650;23.364;2023-07-31T11:13:13;94362.31;;;30.22;37.97
11099;BME280;12223;42.650;23.364;2023-07-31T11:15:39;94350.88;;;31.02;36.57
11099;BME280;12223;42.650;23.364;2023-07-31T11:18:06;94353.38;;;31.91;34.22
11099;BME280;12223;42.650;23.364;2023-07-31T11:20:35;94354.41;;;31.83;33.75
11099;BME280;12223;42.650;23.364;2023-07-31T11:23:02;94356.78;;;30.03;36.35
11099;BME280;12223;42.650;23.364;2023-07-31T11:25:31;94358.69;;;30.18;36.19
11099;BME280;12223;42.650;23.364;2023-07-31T11:28:03;94358.50;;;31.31;34.38
11099;BME280;12223;42.650;23.364;2023-07-31T11:30:31;94352.84;;;32.27;32.94
11099;BME280;12223;42.650;23.364;2023-07-31T11:32:57;94359.28;;;31.93;32.77
11099;BME280;12223;42.650;23.364;2023-07-31T11:35:24;94365.81;;;31.27;34.34
11099;BME280;12223;42.650;23.364;2023-07-31T11:37:51;94361.69;;;31.98;32.81
11099;BME280;12223;42.650;23.364;2023-07-31T11:40:18;94352.28;;;31.53;34.05
11099;BME280;12223;42.650;23.364;2023-07-31T11:42:46;94352.19;;;30.54;34.39
11099;BME280;12223;42.650;23.364;2023-07-31T11:45:13;94351.38;;;31.46;33.70
11099;BME280;12223;42.650;23.364;2023-07-31T11:47:40;94338.72;;;29.51;36.63
11099;BME280;12223;42.650;23.364;2023-07-31T11:50:10;94351.47;;;29.07;37.45
11099;BME280;12223;42.650;23.364;2023-07-31T11:52:40;94345.97;;;29.47;38.20
11099;BME280;12223;42.650;23.364;2023-07-31T11:55:09;94344.56;;;30.98;36.14
11099;BME280;12223;42.650;23.364;2023-07-31T11:57:37;94343.59;;;31.90;34.69
11099;BME280;12223;42.650;23.364;2023-07-31T12:00:09;94329.34;;;32.23;33.72
11099;BME280;12223;42.650;23.364;2023-07-31T12:02:38;94351.72;;;29.30;37.32
11099;BME280;12223;42.650;23.364;2023-07-31T12:05:06;94338.44;;;29.56;37.64
11099;BME280;12223;42.650;23.364;2023-07-31T12:07:44;94339.91;;;29.38;37.97
11099;BME280;12223;42.650;23.364;2023-07-31T12:10:11;94329.16;;;30.20;36.49
11099;BME280;12223;42.650;23.364;2023-07-31T12:12:37;94333.25;;;30.45;35.73
11099;BME280;12223;42.650;23.364;2023-07-31T12:15:15;94331.53;;;29.74;36.55
11099;BME280;12223;42.650;23.364;2023-07-31T12:17:42;94324.94;;;30.92;35.03
11099;BME280;12223;42.650;23.364;2023-07-31T12:20:10;94324.88;;;31.46;34.32
11099;BME280;12223;42.650;23.364;2023-07-31T12:22:36;94319.75;;;31.64;33.34
11099;BME280;12223;42.650;23.364;2023-07-31T12:25:04;94323.28;;;30.18;35.67
11099;BME280;12223;42.650;23.364;2023-07-31T12:27:33;94333.78;;;30.86;34.97
11099;BME280;12223;42.650;23.364;2023-07-31T12:30:00;94320.06;;;31.01;34.56
11099;BME280;12223;42.650;23.364;2023-07-31T12:32:30;94322.88;;;31.05;35.65
11099;BME280;12223;42.650;23.364;2023-07-31T12:34:59;94319.28;;;30.82;36.33
11099;BME280;12223;42.650;23.364;2023-07-31T12:37:26;94321.25;;;32.30;34.11
11099;BME280;12223;42.650;23.364;2023-07-31T12:39:53;94317.25;;;32.77;33.45
11099;BME280;12223;42.650;23.364;2023-07-31T12:42:20;94320.03;;;32.80;32.58
11099;BME280;12223;42.650;23.364;2023-07-31T12:44:47;94324.97;;;31.73;34.01
11099;BME280;12223;42.650;23.364;2023-07-31T12:47:13;94314.59;;;32.05;33.00
11099;BME280;12223;42.650;23.364;2023-07-31T12:49:42;94309.00;;;31.98;33.02